sensor_id;sensor_type;location;lat;lon;timestamp;pressure;altitude;pressure_sealevel;temperature;humidity
70027;BME280;57506;50.092;15.804;2023-11-19T00:02:19;99550.38;;;2.88;100.00
70027;BME280;57506;50.092;15.804;2023-11-19T00:04:45;99498.06;;;2.58;100.00
70027;BME280;57506;50.092;15.804;2023-11-19T00:07:10;99542.53;;;2.86;100.00
70027;BME280;57506;50.092;15.804;2023-11-19T00:09:38;99536.94;;;2.89;100.00
70027;BME280;57506;50.092;15.804;2023-11-19T00:12:05;99541.69;;;2.95;100.00
70027;BME280;57506;50.092;15.804;2023-11-19T00:14:30;99535.13;;;2.99;100.00
70027;BME280;57506;50.092;15.804;2023-11-19T00:16:56;99535.13;;;2.99;100.00
70027;BME280;57506;50.092;15.804;2023-11-19T00:19:22;99529.22;;;2.96;100.00
70027;BME280;57506;50.092;15.804;2023-11-19T00:21:47;99534.72;;;3.04;100.00
70027;BME280;57506;50.092;15.804;2023-11-19T00:24:13;99533.59;;;3.06;100.00
70027;BME280;57506;50.092;15.804;2023-11-19T00:26:41;99526.31;;;3.08;100.00
70027;BME280;57506;50.092;15.804;2023-11-19T00:29:07;99506.41;;;3.03;100.00
70027;BME280;57506;50.092;15.804;2023-11-19T00:31:32;99499.66;;;2.99;100.00
70027;BME280;57506;50.092;15.804;2023-11-19T00:33:58;99496.47;;;3.05;100.00
70027;BME280;57506;50.092;15.804;2023-11-19T00:36:24;99486.09;;;3.02;100.00
70027;BME280;57506;50.092;15.804;2023-11-19T00:38:51;99481.88;;;2.99;100.00
70027;BME280;57506;50.092;15.804;2023-11-19T00:41:18;99475.56;;;3.00;100.00
70027;BME280;57506;50.092;15.804;2023-11-19T00:43:44;99454.13;;;3.02;100.00
70027;BME280;57506;50.092;15.804;2023-11-19T00:46:10;99453.44;;;3.09;100.00
70027;BME280;57506;50.092;15.804;2023-11-19T00:48:37;99451.91;;;3.16;100.00
70027;BME280;57506;50.092;15.804;2023-11-19T00:51:02;99450.06;;;3.17;100.00
70027;BME280;57506;50.092;15.804;2023-11-19T00:53:29;99462.13;;;3.21;100.00
70027;BME280;57506;50.092;15.804;2023-11-19T00:55:55;99445.59;;;3.17;100.00
70027;BME280;57506;50.092;15.804;2023-11-19T00:58:20;99432.38;;;3.26;100.00
70027;BME280;57506;50.092;15.804;2023-11-19T01:00:46;99421.59;;;3.27;100.00
70027;BME280;57506;50.092;15.804;2023-11-19T01:03:12;99411.94;;;3.26;100.00
70027;BME280;57506;50.092;15.804;2023-11-19T01:05:37;99408.16;;;3.29;100.00
70027;BME280;57506;50.092;15.804;2023-11-19T01:08:03;99406.78;;;3.25;100.00
70027;BME280;57506;50.092;15.804;2023-11-19T01:10:30;99409.00;;;3.29;100.00
70027;BME280;57506;50.092;15.804;2023-11-19T01:12:56;99410.53;;;3.32;100.00
70027;BME280;57506;50.092;15.804;2023-11-19T01:15:23;99399.59;;;3.35;100.00
70027;BME280;57506;50.092;15.804;2023-11-19T01:17:49;99395.66;;;3.39;100.00
70027;BME280;57506;50.092;15.804;2023-11-19T01:20:14;99386.69;;;3.30;100.00
70027;BME280;57506;50.092;15.804;2023-11-19T01:22:40;99385.84;;;3.30;100.00
70027;BME280;57506;50.092;15.804;2023-11-19T01:25:06;99387.81;;;3.28;100.00
70027;BME280;57506;50.092;15.804;2023-11-19T01:27:33;99395.28;;;3.24;100.00
70027;BME280;57506;50.092;15.804;2023-11-19T01:30:02;99400.00;;;3.30;100.00
70027;BME280;57506;50.092;15.804;2023-11-19T01:32:31;99407.44;;;3.36;100.00
70027;BME280;57506;50.092;15.804;2023-11-19T01:34:57;99394.53;;;3.32;100.00
70027;BME280;57506;50.092;15.804;2023-11-19T01:37:23;99404.78;;;3.36;100.00
70027;BME280;57506;50.092;15.804;2023-11-19T01:39:48;99391.31;;;3.38;100.00
70027;BME280;57506;50.092;15.804;2023-11-19T01:42:14;99375.19;;;3.30;100.00
70027;BME280;57506;50.092;15.804;2023-11-19T01:44:41;99367.06;;;3.31;100.00
70027;BME280;57506;50.092;15.804;2023-11-19T01:47:07;99367.34;;;3.38;100.00
70027;BME280;57506;50.092;15.804;2023-11-19T01:49:34;99358.22;;;3.40;100.00
70027;BME280;57506;50.092;15.804;2023-11-19T01:52:00;99352.72;;;3.42;100.00
70027;BME280;57506;50.092;15.804;2023-11-19T01:54:26;99338.88;;;3.38;100.00
70027;BME280;57506;50.092;15.804;2023-11-19T01:56:54;99350.38;;;3.39;100.00
70027;BME280;57506;50.092;15.804;2023-11-19T01:59:23;99341.00;;;3.35;100.00
70027;BME280;57506;50.092;15.804;2023-11-19T02:01:55;99333.56;;;3.38;100.00
70027;BME280;57506;50.092;15.804;2023-11-19T02:04:21;99344.72;;;3.51;100.00
70027;BME280;57506;50.092;15.804;2023-11-19T02:06:48;99342.22;;;3.50;100.00
70027;BME280;57506;50.092;15.804;2023-11-19T02:09:15;99333.09;;;3.53;100.00
70027;BME280;57506;50.092;15.804;2023-11-19T02:11:45;99331.56;;;3.50;100.00
70027;BME280;57506;50.092;15.804;2023-11-19T02:14:15;99323.28;;;3.53;100.00
70027;BME280;57506;50.092;15.804;2023-11-19T02:16:41;99326.72;;;3.63;100.00
70027;BME280;57506;50.092;15.804;2023-11-19T02:19:06;99321.00;;;3.58;100.00
70027;BME280;57506;50.092;15.804;2023-11-19T02:21:33;99297.22;;;3.47;100.00
70027;BME280;57506;50.092;15.804;2023-11-19T02:23:59;99290.06;;;3.47;100.00
70027;BME280;57506;50.092;15.804;2023-11-19T02:26:34;99277.44;;;3.49;100.00
70027;BME280;57506;50.092;15.804;2023-11-19T02:29:04;99270.41;;;3.48;100.00
70027;BME280;57506;50.092;15.804;2023-11-19T02:31:32;99246.88;;;3.44;100.00
70027;BME280;57506;50.092;15.804;2023-11-19T02:33:57;99249.81;;;3.50;100.00
70027;BME280;57506;50.092;15.804;2023-11-19T02:36:25;99243.63;;;3.50;100.00
70027;BME280;57506;50.092;15.804;2023-11-19T02:38:51;99232.56;;;3.45;100.00
70027;BME280;57506;50.092;15.804;2023-11-19T02:41:16;99246.56;;;3.57;100.00
70027;BME280;57506;50.092;15.804;2023-11-19T02:43:42;99253.66;;;3.66;100.00
70027;BME280;57506;50.092;15.804;2023-11-19T02:46:07;99244.25;;;3.62;100.00
70027;BME280;57506;50.092;15.804;2023-11-19T02:48:34;99251.53;;;3.69;100.00
70027;BME280;57506;50.092;15.804;2023-11-19T02:51:03;99243.53;;;3.69;100.00
70027;BME280;57506;50.092;15.804;2023-11-19T02:53:32;99246.75;;;3.73;100.00
70027;BME280;57506;50.092;15.804;2023-11-19T02:55:57;99250.16;;;3.65;100.00
70027;BME280;57506;50.092;15.804;2023-11-19T02:58:31;99255.59;;;3.73;100.00
70027;BME280;57506;50.092;15.804;2023-11-19T03:00:57;99255.59;;;3.73;100.00
70027;BME280;57506;50.092;15.804;2023-11-19T03:03:25;99259.59;;;3.77;100.00
70027;BME280;57506;50.092;15.804;2023-11-19T03:05:56;99252.31;;;3.79;100.00
70027;BME280;57506;50.092;15.804;2023-11-19T03:08:22;99251.31;;;3.80;100.00
70027;BME280;57506;50.092;15.804;2023-11-19T03:10:48;99239.81;;;3.80;100.00
70027;BME280;57506;50.092;15.804;2023-11-19T03:13:14;99237.84;;;3.82;100.00
70027;BME280;57506;50.092;15.804;2023-11-19T03:15:40;99230.97;;;3.79;100.00
70027;BME280;57506;50.092;15.804;2023-11-19T03:18:06;99210.09;;;3.75;100.00
70027;BME280;57506;50.092;15.804;2023-11-19T03:20:31;99220.16;;;3.81;100.00
70027;BME280;57506;50.092;15.804;2023-11-19T03:22:57;99214.00;;;3.80;100.00
70027;BME280;57506;50.092;15.804;2023-11-19T03:25:27;99221.84;;;3.82;100.00
70027;BME280;57506;50.092;15.804;2023-11-19T03:27:59;99225.34;;;3.82;100.00
70027;BME280;57506;50.092;15.804;2023-11-19T03:30:26;99230.00;;;3.80;100.00
70027;BME280;57506;50.092;15.804;2023-11-19T03:32:51;99221.69;;;3.83;99.35
70027;BME280;57506;50.092;15.804;2023-11-19T03:35:17;99214.84;;;3.81;99.91
70027;BME280;57506;50.092;15.804;2023-11-19T03:37:42;99213.72;;;3.83;100.00
70027;BME280;57506;50.092;15.804;2023-11-19T03:40:09;99226.25;;;3.91;100.00
70027;BME280;57506;50.092;15.804;2023-11-19T03:42:35;99216.06;;;3.86;99.12
70027;BME280;57506;50.092;15.804;2023-11-19T03:45:00;99209.75;;;3.88;98.51
70027;BME280;57506;50.092;15.804;2023-11-19T03:47:26;99201.06;;;3.85;98.65
70027;BME280;57506;50.092;15.804;2023-11-19T03:49:52;99207.25;;;3.86;98.77
70027;BME280;57506;50.092;15.804;2023-11-19T03:52:18;99206.31;;;3.95;98.87
70027;BME280;57506;50.092;15.804;2023-11-19T03:54:44;99196.28;;;3.89;100.00
70027;BME280;57506;50.092;15.804;2023-11-19T03:57:14;99193.28;;;3.92;100.00
70027;BME280;57506;50.092;15.804;2023-11-19T03:59:41;99177.06;;;3.85;100.00
70027;BME280;57506;50.092;15.804;2023-11-19T04:02:07;99167.78;;;3.90;100.00
70027;BME280;57506;50.092;15.804;2023-11-19T04:04:32;99176.16;;;3.95;100.00
70027;BME280;57506;50.092;15.804;2023-11-19T04:06:59;99164.66;;;3.94;100.00
70027;BME280;57506;50.092;15.804;2023-11-19T04:09:26;99170.38;;;3.99;100.00
70027;BME280;57506;50.092;15.804;2023-11-19T04:11:51;99166.88;;;3.99;100.00
70027;BME280;57506;50.092;15.804;2023-11-19T04:14:17;99161.53;;;3.99;100.00
70027;BME280;57506;50.092;15.804;2023-11-19T04:16:44;99141.66;;;3.93;100.00
70027;BME280;57506;50.092;15.804;2023-11-19T04:19:10;99154.28;;;3.91;100.00
70027;BME280;57506;50.092;15.804;2023-11-19T04:21:36;99156.94;;;3.91;100.00
70027;BME280;57506;50.092;15.804;2023-11-19T04:24:01;99140.22;;;3.81;100.00
70027;BME280;57506;50.092;15.804;2023-11-19T04:26:27;99141.97;;;3.72;100.00
70027;BME280;57506;50.092;15.804;2023-11-19T04:28:52;99136.41;;;3.66;100.00
70027;BME280;57506;50.092;15.804;2023-11-19T04:31:18;99133.88;;;3.64;100.00
70027;BME280;57506;50.092;15.804;2023-11-19T04:33:44;99122.16;;;3.57;100.00
70027;BME280;57506;50.092;15.804;2023-11-19T04:36:12;99119.50;;;3.57;100.00
70027;BME280;57506;50.092;15.804;2023-11-19T04:38:39;99119.19;;;3.60;100.00
70027;BME280;57506;50.092;15.804;2023-11-19T04:41:05;99102.28;;;3.51;100.00
70027;BME280;57506;50.092;15.804;2023-11-19T04:43:34;99101.16;;;3.54;100.00
70027;BME280;57506;50.092;15.804;2023-11-19T04:46:00;99100.84;;;3.57;100.00
70027;BME280;57506;50.092;15.804;2023-11-19T04:48:28;99106.19;;;3.57;100.00
70027;BME280;57506;50.092;15.804;2023-11-19T04:50:54;99099.75;;;3.50;100.00
70027;BME280;57506;50.092;15.804;2023-11-19T04:53:20;99081.72;;;3.44;100.00
70027;BME280;57506;50.092;15.804;2023-11-19T04:55:45;99077.38;;;3.43;100.00
70027;BME280;57506;50.092;15.804;2023-11-19T04:58:11;99073.28;;;3.48;100.00
70027;BME280;57506;50.092;15.804;2023-11-19T05:00:36;99063.75;;;3.46;100.00
70027;BME280;57506;50.092;15.804;2023-11-19T05:03:02;99050.72;;;3.43;100.00
70027;BME280;57506;50.092;15.804;2023-11-19T05:05:28;99058.56;;;3.44;100.00
70027;BME280;57506;50.092;15.804;2023-11-19T05:07:53;99032.09;;;3.43;100.00
70027;BME280;57506;50.092;15.804;2023-11-19T05:10:20;99026.09;;;3.41;100.00
70027;BME280;57506;50.092;15.804;2023-11-19T05:12:45;99016.78;;;3.45;100.00
70027;BME280;57506;50.092;15.804;2023-11-19T05:15:11;99011.63;;;3.43;100.00
70027;BME280;57506;50.092;15.804;2023-11-19T05:17:37;98996.41;;;3.36;100.00
70027;BME280;57506;50.092;15.804;2023-11-19T05:20:03;98997.78;;;3.40;100.00
70027;BME280;57506;50.092;15.804;2023-11-19T05:22:29;99001.06;;;3.34;100.00
70027;BME280;57506;50.092;15.804;2023-11-19T05:24:54;99007.75;;;3.38;100.00
70027;BME280;57506;50.092;15.804;2023-11-19T05:27:21;99027.75;;;3.42;100.00
70027;BME280;57506;50.092;15.804;2023-11-19T05:29:49;99014.06;;;3.37;100.00
70027;BME280;57506;50.092;15.804;2023-11-19T05:32:14;99010.41;;;3.38;100.00
70027;BME280;57506;50.092;15.804;2023-11-19T05:34:40;99017.41;;;3.39;100.00
70027;BME280;57506;50.092;15.804;2023-11-19T05:37:05;99004.09;;;3.39;100.00
70027;BME280;57506;50.092;15.804;2023-11-19T05:39:31;99003.41;;;3.37;100.00
70027;BME280;57506;50.092;15.804;2023-11-19T05:41:57;98995.47;;;3.45;100.00
70027;BME280;57506;50.092;15.804;2023-11-19T05:44:22;98994.19;;;3.49;100.00
70027;BME280;57506;50.092;15.804;2023-11-19T05:46:48;99002.25;;;3.57;100.00
70027;BME280;57506;50.092;15.804;2023-11-19T05:49:13;98992.25;;;3.59;100.00
70027;BME280;57506;50.092;15.804;2023-11-19T05:51:42;98989.97;;;3.64;100.00
70027;BME280;57506;50.092;15.804;2023-11-19T05:54:08;98992.13;;;3.61;100.00
70027;BME280;57506;50.092;15.804;2023-11-19T05:56:35;98979.44;;;3.55;100.00
70027;BME280;57506;50.092;15.804;2023-11-19T05:59:01;98970.94;;;3.59;100.00
70027;BME280;57506;50.092;15.804;2023-11-19T06:01:29;98960.63;;;3.56;100.00
70027;BME280;57506;50.092;15.804;2023-11-19T06:03:55;98958.63;;;3.58;100.00
70027;BME280;57506;50.092;15.804;2023-11-19T06:06:20;98954.66;;;3.62;100.00
70027;BME280;57506;50.092;15.804;2023-11-19T06:08:46;98957.78;;;3.58;100.00
70027;BME280;57506;50.092;15.804;2023-11-19T06:11:12;98958.94;;;3.55;100.00
70027;BME280;57506;50.092;15.804;2023-11-19T06:13:44;98939.09;;;3.49;100.00
70027;BME280;57506;50.092;15.804;2023-11-19T06:16:10;98931.78;;;3.51;100.00
70027;BME280;57506;50.092;15.804;2023-11-19T06:18:38;98931.63;;;3.53;100.00
70027;BME280;57506;50.092;15.804;2023-11-19T06:21:04;98931.31;;;3.56;100.00
70027;BME280;57506;50.092;15.804;2023-11-19T06:23:29;98921.88;;;3.44;100.00
70027;BME280;57506;50.092;15.804;2023-11-19T06:25:55;98909.22;;;3.38;100.00
70027;BME280;57506;50.092;15.804;2023-11-19T06:28:20;98918.75;;;3.48;100.00
70027;BME280;57506;50.092;15.804;2023-11-19T06:30:46;98920.59;;;3.48;100.00
70027;BME280;57506;50.092;15.804;2023-11-19T06:33:14;98916.94;;;3.49;100.00
70027;BME280;57506;50.092;15.804;2023-11-19T06:35:40;98907.28;;;3.48;100.00
70027;BME280;57506;50.092;15.804;2023-11-19T06:38:05;98911.00;;;3.55;100.00
70027;BME280;57506;50.092;15.804;2023-11-19T06:40:32;98913.16;;;3.60;100.00
70027;BME280;57506;50.092;15.804;2023-11-19T06:42:57;98896.16;;;3.53;100.00
70027;BME280;57506;50.092;15.804;2023-11-19T06:45:23;98899.84;;;3.60;100.00
70027;BME280;57506;50.092;15.804;2023-11-19T06:47:48;98899.53;;;3.63;100.00
70027;BME280;57506;50.092;15.804;2023-11-19T06:50:14;98885.59;;;3.69;100.00
70027;BME280;57506;50.092;15.804;2023-11-19T06:52:40;98888.56;;;3.66;100.00
70027;BME280;57506;50.092;15.804;2023-11-19T06:55:06;98892.06;;;3.66;100.00
70027;BME280;57506;50.092;15.804;2023-11-19T06:57:32;98903.78;;;3.73;100.00
70027;BME280;57506;50.092;15.804;2023-11-19T06:59:58;98903.59;;;3.75;100.00
70027;BME280;57506;50.092;15.804;2023-11-19T07:02:24;98887.13;;;3.71;100.00
70027;BME280;57506;50.092;15.804;2023-11-19T07:04:50;98867.66;;;3.79;100.00
70027;BME280;57506;50.092;15.804;2023-11-19T07:07:16;98866.19;;;3.84;100.00
70027;BME280;57506;50.092;15.804;2023-11-19T07:09:42;98879.69;;;3.83;100.00
70027;BME280;57506;50.092;15.804;2023-11-19T07:12:08;98886.38;;;3.87;100.00
70027;BME280;57506;50.092;15.804;2023-11-19T07:14:34;98887.88;;;3.90;100.00
70027;BME280;57506;50.092;15.804;2023-11-19T07:17:00;98888.50;;;3.83;100.00
70027;BME280;57506;50.092;15.804;2023-11-19T07:19:26;98884.19;;;3.91;100.00
70027;BME280;57506;50.092;15.804;2023-11-19T07:21:51;98876.03;;;3.92;100.00
70027;BME280;57506;50.092;15.804;2023-11-19T07:24:20;98879.59;;;4.01;100.00
70027;BME280;57506;50.092;15.804;2023-11-19T07:26:47;98876.09;;;4.00;100.00
70027;BME280;57506;50.092;15.804;2023-11-19T07:29:15;98865.28;;;4.02;100.00
70027;BME280;57506;50.092;15.804;2023-11-19T07:31:44;98861.25;;;3.98;100.00
70027;BME280;57506;50.092;15.804;2023-11-19T07:34:10;98866.94;;;4.03;100.00
70027;BME280;57506;50.092;15.804;2023-11-19T07:36:37;98863.59;;;4.01;100.00
70027;BME280;57506;50.092;15.804;2023-11-19T07:39:04;98859.78;;;4.03;100.00
70027;BME280;57506;50.092;15.804;2023-11-19T07:41:30;98855.63;;;4.09;100.00
70027;BME280;57506;50.092;15.804;2023-11-19T07:43:56;98848.50;;;4.17;100.00
70027;BME280;57506;50.092;15.804;2023-11-19T07:46:22;98834.28;;;4.09;100.00
70027;BME280;57506;50.092;15.804;2023-11-19T07:48:48;98846.34;;;4.21;100.00
70027;BME280;57506;50.092;15.804;2023-11-19T07:51:14;98853.06;;;4.33;100.00
70027;BME280;57506;50.092;15.804;2023-11-19T07:53:40;98854.03;;;4.32;100.00
70027;BME280;57506;50.092;15.804;2023-11-19T07:56:07;98860.56;;;4.38;100.00
70027;BME280;57506;50.092;15.804;2023-11-19T07:58:33;98853.72;;;4.35;100.00
70027;BME280;57506;50.092;15.804;2023-11-19T08:00:59;98856.22;;;4.37;100.00
70027;BME280;57506;50.092;15.804;2023-11-19T08:03:24;98849.38;;;4.34;100.00
70027;BME280;57506;50.092;15.804;2023-11-19T08:05:50;98840.72;;;4.32;100.00
70027;BME280;57506;50.092;15.804;2023-11-19T08:08:16;98833.84;;;4.30;100.00
70027;BME280;57506;50.092;15.804;2023-11-19T08:10:42;98842.69;;;4.30;100.00
70027;BME280;57506;50.092;15.804;2023-11-19T08:13:11;98843.38;;;4.32;100.00
70027;BME280;57506;50.092;15.804;2023-11-19T08:15:38;98834.72;;;4.38;100.00
70027;BME280;57506;50.092;15.804;2023-11-19T08:18:04;98829.72;;;4.43;100.00
70027;BME280;57506;50.092;15.804;2023-11-19T08:20:30;98822.75;;;4.58;100.00
70027;BME280;57506;50.092;15.804;2023-11-19T08:22:56;98828.59;;;4.62;100.00
70027;BME280;57506;50.092;15.804;2023-11-19T08:25:21;98821.25;;;4.64;100.00
70027;BME280;57506;50.092;15.804;2023-11-19T08:27:47;98821.25;;;4.72;100.00
70027;BME280;57506;50.092;15.804;2023-11-19T08:30:13;98829.09;;;4.74;100.00
70027;BME280;57506;50.092;15.804;2023-11-19T08:32:40;98823.59;;;4.75;100.00
70027;BME280;57506;50.092;15.804;2023-11-19T08:35:06;98825.28;;;4.84;100.00
70027;BME280;57506;50.092;15.804;2023-11-19T08:37:32;98823.28;;;4.86;100.00
70027;BME280;57506;50.092;15.804;2023-11-19T08:39:58;98810.56;;;4.88;100.00
70027;BME280;57506;50.092;15.804;2023-11-19T08:42:24;98821.44;;;4.95;100.00
70027;BME280;57506;50.092;15.804;2023-11-19T08:44:51;98832.28;;;4.93;100.00
70027;BME280;57506;50.092;15.804;2023-11-19T08:47:19;98837.47;;;4.95;100.00
70027;BME280;57506;50.092;15.804;2023-11-19T08:49:45;98830.59;;;4.92;100.00
70027;BME280;57506;50.092;15.804;2023-11-19T08:52:11;98812.94;;;4.83;100.00
70027;BME280;57506;50.092;15.804;2023-11-19T08:54:37;98831.09;;;4.88;100.00
70027;BME280;57506;50.092;15.804;2023-11-19T08:57:03;98824.13;;;4.87;100.00
70027;BME280;57506;50.092;15.804;2023-11-19T08:59:30;98814.41;;;4.94;100.00
70027;BME280;57506;50.092;15.804;2023-11-19T09:01:55;98809.59;;;4.98;100.00
70027;BME280;57506;50.092;15.804;2023-11-19T09:04:21;98804.25;;;4.98;100.00
70027;BME280;57506;50.092;15.804;2023-11-19T09:06:48;98802.75;;;5.03;100.00
70027;BME280;57506;50.092;15.804;2023-11-19T09:09:14;98792.41;;;5.00;100.00
70027;BME280;57506;50.092;15.804;2023-11-19T09:11:40;98800.25;;;5.02;100.00
70027;BME280;57506;50.092;15.804;2023-11-19T09:14:06;98797.03;;;5.06;100.00
70027;BME280;57506;50.092;15.804;2023-11-19T09:16:32;98786.03;;;5.09;100.00
70027;BME280;57506;50.092;15.804;2023-11-19T09:18:58;98774.34;;;5.18;100.00
70027;BME280;57506;50.092;15.804;2023-11-19T09:21:26;98776.00;;;5.27;100.00
70027;BME280;57506;50.092;15.804;2023-11-19T09:23:51;98764.25;;;5.37;100.00
70027;BME280;57506;50.092;15.804;2023-11-19T09:26:19;98769.56;;;5.53;100.00
70027;BME280;57506;50.092;15.804;2023-11-19T09:28:44;98777.91;;;5.58;100.00
70027;BME280;57506;50.092;15.804;2023-11-19T09:31:17;98764.53;;;5.58;100.00
70027;BME280;57506;50.092;15.804;2023-11-19T09:33:44;98765.41;;;5.50;100.00
70027;BME280;57506;50.092;15.804;2023-11-19T09:36:11;98747.53;;;5.51;100.00
70027;BME280;57506;50.092;15.804;2023-11-19T09:38:43;98756.88;;;5.55;100.00
70027;BME280;57506;50.092;15.804;2023-11-19T09:41:10;98757.19;;;5.60;100.00
70027;BME280;57506;50.092;15.804;2023-11-19T09:43:39;98745.16;;;5.56;100.00
70027;BME280;57506;50.092;15.804;2023-11-19T09:46:06;98752.34;;;5.63;100.00
70027;BME280;57506;50.092;15.804;2023-11-19T09:48:35;98739.16;;;5.54;100.00
70027;BME280;57506;50.092;15.804;2023-11-19T09:51:07;98735.66;;;5.53;100.00
70027;BME280;57506;50.092;15.804;2023-11-19T09:53:34;98735.13;;;5.66;100.00
70027;BME280;57506;50.092;15.804;2023-11-19T09:56:02;98739.41;;;5.75;100.00
70027;BME280;57506;50.092;15.804;2023-11-19T09:58:29;98719.75;;;5.68;100.00
70027;BME280;57506;50.092;15.804;2023-11-19T10:00:56;98723.38;;;5.75;100.00
70027;BME280;57506;50.092;15.804;2023-11-19T10:03:25;98711.84;;;5.75;100.00
70027;BME280;57506;50.092;15.804;2023-11-19T10:05:54;98715.66;;;5.80;100.00
70027;BME280;57506;50.092;15.804;2023-11-19T10:08:20;98719.94;;;5.97;100.00
70027;BME280;57506;50.092;15.804;2023-11-19T10:10:47;98722.28;;;6.01;100.00
70027;BME280;57506;50.092;15.804;2023-11-19T10:13:13;98722.81;;;5.96;100.00
70027;BME280;57506;50.092;15.804;2023-11-19T10:15:40;98719.84;;;5.83;100.00
70027;BME280;57506;50.092;15.804;2023-11-19T10:18:06;98710.97;;;5.82;100.00
70027;BME280;57506;50.092;15.804;2023-11-19T10:20:38;98709.28;;;5.89;100.00
70027;BME280;57506;50.092;15.804;2023-11-19T10:23:06;98702.94;;;5.90;100.00
70027;BME280;57506;50.092;15.804;2023-11-19T10:25:32;98702.28;;;5.88;100.00
70027;BME280;57506;50.092;15.804;2023-11-19T10:27:59;98696.22;;;5.94;100.00
70027;BME280;57506;50.092;15.804;2023-11-19T10:30:30;98703.41;;;5.86;100.00
70027;BME280;57506;50.092;15.804;2023-11-19T10:33:08;98698.44;;;5.83;100.00
70027;BME280;57506;50.092;15.804;2023-11-19T10:35:51;98703.31;;;5.79;100.00
70027;BME280;57506;50.092;15.804;2023-11-19T10:38:18;98701.56;;;5.86;100.00
70027;BME280;57506;50.092;15.804;2023-11-19T10:40:44;98691.88;;;5.85;100.00
70027;BME280;57506;50.092;15.804;2023-11-19T10:43:09;98688.44;;;5.77;100.00
70027;BME280;57506;50.092;15.804;2023-11-19T10:45:38;98667.56;;;5.72;100.00
70027;BME280;57506;50.092;15.804;2023-11-19T10:48:05;98674.41;;;5.75;100.00
70027;BME280;57506;50.092;15.804;2023-11-19T10:50:39;98676.22;;;5.82;100.00
70027;BME280;57506;50.092;15.804;2023-11-19T10:53:05;98677.19;;;5.89;100.00
70027;BME280;57506;50.092;15.804;2023-11-19T10:55:34;98680.69;;;5.90;100.00
70027;BME280;57506;50.092;15.804;2023-11-19T10:58:13;98678.19;;;5.88;100.00
70027;BME280;57506;50.092;15.804;2023-11-19T11:03:18;98682.50;;;5.97;100.00
70027;BME280;57506;50.092;15.804;2023-11-19T11:05:47;98676.81;;;6.01;100.00
70027;BME280;57506;50.092;15.804;2023-11-19T11:08:13;98668.41;;;6.04;100.00
70027;BME280;57506;50.092;15.804;2023-11-19T11:10:57;98670.63;;;6.00;100.00
70027;BME280;57506;50.092;15.804;2023-11-19T11:13:24;98670.97;;;5.97;100.00
70027;BME280;57506;50.092;15.804;2023-11-19T11:15:51;98674.94;;;6.01;100.00
70027;BME280;57506;50.092;15.804;2023-11-19T11:18:17;98670.16;;;5.96;100.00
70027;BME280;57506;50.092;15.804;2023-11-19T11:20:47;98670.81;;;5.99;100.00
70027;BME280;57506;50.092;15.804;2023-11-19T11:26:29;98653.09;;;5.97;100.00
70027;BME280;57506;50.092;15.804;2023-11-19T11:39:40;98641.78;;;6.33;100.00
70027;BME280;57506;50.092;15.804;2023-11-19T11:45:07;98657.56;;;6.43;100.00
70027;BME280;57506;50.092;15.804;2023-11-19T11:55:25;98631.88;;;6.33;100.00
70027;BME280;57506;50.092;15.804;2023-11-19T11:57:51;98644.72;;;6.38;100.00
70027;BME280;57506;50.092;15.804;2023-11-19T12:00:29;98652.41;;;6.41;100.00
70027;BME280;57506;50.092;15.804;2023-11-19T12:02:56;98649.56;;;6.43;100.00
70027;BME280;57506;50.092;15.804;2023-11-19T12:05:22;98643.38;;;6.42;100.00
70027;BME280;57506;50.092;15.804;2023-11-19T12:08:15;98639.19;;;6.40;100.00
70027;BME280;57506;50.092;15.804;2023-11-19T12:10:53;98643.66;;;6.47;100.00
70027;BME280;57506;50.092;15.804;2023-11-19T12:13:20;98641.78;;;6.33;100.00
70027;BME280;57506;50.092;15.804;2023-11-19T12:20:50;98621.59;;;6.45;100.00
70027;BME280;57506;50.092;15.804;2023-11-19T12:23:15;98618.34;;;6.50;100.00
70027;BME280;57506;50.092;15.804;2023-11-19T12:25:41;98612.22;;;6.64;100.00
70027;BME280;57506;50.092;15.804;2023-11-19T12:28:12;98596.03;;;6.57;100.00
70027;BME280;57506;50.092;15.804;2023-11-19T12:30:38;98594.50;;;6.63;100.00
70027;BME280;57506;50.092;15.804;2023-11-19T12:33:11;98605.47;;;6.68;100.00
70027;BME280;57506;50.092;15.804;2023-11-19T12:35:44;98618.19;;;6.66;100.00
70027;BME280;57506;50.092;15.804;2023-11-19T12:38:23;98623.75;;;6.64;100.00
70027;BME280;57506;50.092;15.804;2023-11-19T12:41:08;98616.16;;;6.53;100.00
70027;BME280;57506;50.092;15.804;2023-11-19T12:43:36;98620.41;;;6.48;100.00
70027;BME280;57506;50.092;15.804;2023-11-19T12:46:18;98618.16;;;6.51;100.00
70027;BME280;57506;50.092;15.804;2023-11-19T12:48:46;98609.41;;;6.43;100.00
70027;BME280;57506;50.092;15.804;2023-11-19T12:51:12;98613.22;;;6.48;100.00
70027;BME280;57506;50.092;15.804;2023-11-19T12:53:58;98598.22;;;6.39;100.00
70027;BME280;57506;50.092;15.804;2023-11-19T12:56:24;98613.56;;;6.45;100.00
70027;BME280;57506;50.092;15.804;2023-11-19T12:58:50;98604.34;;;6.48;100.00
70027;BME280;57506;50.092;15.804;2023-11-19T13:01:18;98596.19;;;6.41;100.00
70027;BME280;57506;50.092;15.804;2023-11-19T13:03:44;98600.44;;;6.50;100.00
70027;BME280;57506;50.092;15.804;2023-11-19T13:06:12;98585.97;;;6.45;100.00
70027;BME280;57506;50.092;15.804;2023-11-19T13:08:43;98581.66;;;6.58;100.00
70027;BME280;57506;50.092;15.804;2023-11-19T13:11:12;98583.38;;;6.66;100.00
70027;BME280;57506;50.092;15.804;2023-11-19T13:14:13;98575.47;;;6.73;100.00
70027;BME280;57506;50.092;15.804;2023-11-19T13:16:39;98584.88;;;6.83;100.00
70027;BME280;57506;50.092;15.804;2023-11-19T13:19:04;98573.97;;;6.99;100.00
70027;BME280;57506;50.092;15.804;2023-11-19T13:21:31;98575.63;;;7.00;100.00
70027;BME280;57506;50.092;15.804;2023-11-19T13:23:57;98576.75;;;7.06;100.00